Terminal Aerodrome Forecast
Issued by NWS

Home | Current Version | Previous Version | Text Only | Print | Product List | Glossary On
Versions: 1 2 3 4 5 6 7 8 9 10 11 12 13 14 15
718
FTUS46 KHNX 192331 RRA
TAFBFL
TAF
KBFL 192331Z 2000/2024 VRB04KT P6SM OVC080
     FM200800 10011KT P6SM -RA OVC050
     FM201200 06012KT P6SM OVC050
     FM202000 15013G20KT P6SM OVC050=

USA.gov is the U.S. government's official web portal to all federal, state and local government web resources and services.